sensor_id;sensor_type;location;lat;lon;timestamp;P1;durP1;ratioP1;P2;durP2;ratioP2
17283;SDS011;8760;52.248;20.952;2023-08-08T00:00:04;3.67;;;1.90;;
17283;SDS011;8760;52.248;20.952;2023-08-08T00:02:31;5.28;;;2.20;;
17283;SDS011;8760;52.248;20.952;2023-08-08T00:04:58;5.07;;;1.80;;
17283;SDS011;8760;52.248;20.952;2023-08-08T00:07:25;5.80;;;1.80;;
17283;SDS011;8760;52.248;20.952;2023-08-08T00:09:56;5.90;;;1.90;;
17283;SDS011;8760;52.248;20.952;2023-08-08T00:12:23;5.85;;;1.80;;
17283;SDS011;8760;52.248;20.952;2023-08-08T00:14:50;2.70;;;1.85;;
17283;SDS011;8760;52.248;20.952;2023-08-08T00:17:17;3.03;;;1.92;;
17283;SDS011;8760;52.248;20.952;2023-08-08T00:19:43;5.72;;;2.10;;
17283;SDS011;8760;52.248;20.952;2023-08-08T00:22:10;8.98;;;2.08;;
17283;SDS011;8760;52.248;20.952;2023-08-08T00:24:37;3.80;;;1.87;;
17283;SDS011;8760;52.248;20.952;2023-08-08T00:27:05;3.38;;;2.08;;
17283;SDS011;8760;52.248;20.952;2023-08-08T00:29:32;6.70;;;2.08;;
17283;SDS011;8760;52.248;20.952;2023-08-08T00:31:59;5.80;;;1.85;;
17283;SDS011;8760;52.248;20.952;2023-08-08T00:34:26;4.25;;;1.80;;
17283;SDS011;8760;52.248;20.952;2023-08-08T00:36:53;5.70;;;2.03;;
17283;SDS011;8760;52.248;20.952;2023-08-08T00:39:20;3.70;;;1.90;;
17283;SDS011;8760;52.248;20.952;2023-08-08T00:41:46;4.40;;;2.08;;
17283;SDS011;8760;52.248;20.952;2023-08-08T00:44:15;4.63;;;2.07;;
17283;SDS011;8760;52.248;20.952;2023-08-08T00:46:41;5.40;;;2.00;;
17283;SDS011;8760;52.248;20.952;2023-08-08T00:49:08;4.53;;;2.20;;
17283;SDS011;8760;52.248;20.952;2023-08-08T00:51:35;7.43;;;2.10;;
17283;SDS011;8760;52.248;20.952;2023-08-08T00:54:03;6.15;;;2.25;;
17283;SDS011;8760;52.248;20.952;2023-08-08T00:56:30;7.03;;;2.28;;
17283;SDS011;8760;52.248;20.952;2023-08-08T00:58:58;5.40;;;1.83;;
17283;SDS011;8760;52.248;20.952;2023-08-08T01:01:26;3.40;;;1.50;;
17283;SDS011;8760;52.248;20.952;2023-08-08T01:03:53;5.23;;;2.10;;
17283;SDS011;8760;52.248;20.952;2023-08-08T01:06:22;3.80;;;1.90;;
17283;SDS011;8760;52.248;20.952;2023-08-08T01:08:55;6.33;;;1.93;;
17283;SDS011;8760;52.248;20.952;2023-08-08T01:11:25;3.83;;;2.00;;
17283;SDS011;8760;52.248;20.952;2023-08-08T01:13:54;6.57;;;1.80;;
17283;SDS011;8760;52.248;20.952;2023-08-08T01:16:22;3.40;;;2.00;;
17283;SDS011;8760;52.248;20.952;2023-08-08T01:18:51;4.73;;;2.13;;
17283;SDS011;8760;52.248;20.952;2023-08-08T01:21:19;5.70;;;2.13;;
17283;SDS011;8760;52.248;20.952;2023-08-08T01:23:48;4.83;;;2.30;;
17283;SDS011;8760;52.248;20.952;2023-08-08T01:26:22;6.03;;;2.10;;
17283;SDS011;8760;52.248;20.952;2023-08-08T01:28:52;6.30;;;2.10;;
17283;SDS011;8760;52.248;20.952;2023-08-08T01:31:19;4.10;;;2.00;;
17283;SDS011;8760;52.248;20.952;2023-08-08T01:33:46;4.07;;;2.10;;
17283;SDS011;8760;52.248;20.952;2023-08-08T01:36:15;4.33;;;1.97;;
17283;SDS011;8760;52.248;20.952;2023-08-08T01:38:46;7.53;;;1.97;;
17283;SDS011;8760;52.248;20.952;2023-08-08T01:41:17;4.47;;;2.17;;
17283;SDS011;8760;52.248;20.952;2023-08-08T01:43:47;4.77;;;2.00;;
17283;SDS011;8760;52.248;20.952;2023-08-08T01:46:14;5.63;;;1.93;;
17283;SDS011;8760;52.248;20.952;2023-08-08T01:48:44;5.13;;;2.10;;
17283;SDS011;8760;52.248;20.952;2023-08-08T01:51:11;5.97;;;2.17;;
17283;SDS011;8760;52.248;20.952;2023-08-08T01:53:38;2.67;;;1.73;;
17283;SDS011;8760;52.248;20.952;2023-08-08T01:56:05;5.30;;;1.90;;
17283;SDS011;8760;52.248;20.952;2023-08-08T01:58:33;4.50;;;1.93;;
17283;SDS011;8760;52.248;20.952;2023-08-08T02:01:01;4.73;;;1.73;;
17283;SDS011;8760;52.248;20.952;2023-08-08T02:03:28;7.80;;;2.40;;
17283;SDS011;8760;52.248;20.952;2023-08-08T02:05:55;6.03;;;2.20;;
17283;SDS011;8760;52.248;20.952;2023-08-08T02:08:22;4.80;;;2.00;;
17283;SDS011;8760;52.248;20.952;2023-08-08T02:10:48;7.00;;;2.00;;
17283;SDS011;8760;52.248;20.952;2023-08-08T02:13:15;4.03;;;1.73;;
17283;SDS011;8760;52.248;20.952;2023-08-08T02:15:42;2.73;;;1.70;;
17283;SDS011;8760;52.248;20.952;2023-08-08T02:18:11;5.00;;;1.80;;
17283;SDS011;8760;52.248;20.952;2023-08-08T02:20:37;4.77;;;2.00;;
17283;SDS011;8760;52.248;20.952;2023-08-08T02:23:04;3.17;;;1.90;;
17283;SDS011;8760;52.248;20.952;2023-08-08T02:25:31;6.27;;;2.43;;
17283;SDS011;8760;52.248;20.952;2023-08-08T02:27:58;4.17;;;1.80;;
17283;SDS011;8760;52.248;20.952;2023-08-08T02:30:25;4.20;;;2.00;;
17283;SDS011;8760;52.248;20.952;2023-08-08T02:32:52;3.73;;;1.80;;
17283;SDS011;8760;52.248;20.952;2023-08-08T02:35:20;8.10;;;2.00;;
17283;SDS011;8760;52.248;20.952;2023-08-08T02:37:47;6.00;;;1.93;;
17283;SDS011;8760;52.248;20.952;2023-08-08T02:40:13;5.10;;;2.30;;
17283;SDS011;8760;52.248;20.952;2023-08-08T02:42:40;3.93;;;2.00;;
17283;SDS011;8760;52.248;20.952;2023-08-08T02:45:08;4.87;;;2.30;;
17283;SDS011;8760;52.248;20.952;2023-08-08T02:47:35;4.03;;;2.07;;
17283;SDS011;8760;52.248;20.952;2023-08-08T02:50:02;4.40;;;1.90;;
17283;SDS011;8760;52.248;20.952;2023-08-08T02:52:30;6.30;;;1.73;;
17283;SDS011;8760;52.248;20.952;2023-08-08T02:54:57;5.27;;;2.20;;
17283;SDS011;8760;52.248;20.952;2023-08-08T02:57:24;4.80;;;2.50;;
17283;SDS011;8760;52.248;20.952;2023-08-08T02:59:51;2.93;;;1.80;;
17283;SDS011;8760;52.248;20.952;2023-08-08T03:02:18;4.43;;;2.03;;
17283;SDS011;8760;52.248;20.952;2023-08-08T03:04:44;6.23;;;1.90;;
17283;SDS011;8760;52.248;20.952;2023-08-08T03:07:11;5.73;;;2.20;;
17283;SDS011;8760;52.248;20.952;2023-08-08T03:09:39;8.40;;;2.20;;
17283;SDS011;8760;52.248;20.952;2023-08-08T03:12:07;4.43;;;1.87;;
17283;SDS011;8760;52.248;20.952;2023-08-08T03:14:34;4.30;;;1.87;;
17283;SDS011;8760;52.248;20.952;2023-08-08T03:17:01;4.23;;;2.10;;
17283;SDS011;8760;52.248;20.952;2023-08-08T03:19:28;5.00;;;2.10;;
17283;SDS011;8760;52.248;20.952;2023-08-08T03:21:55;4.00;;;2.00;;
17283;SDS011;8760;52.248;20.952;2023-08-08T03:24:22;5.87;;;1.90;;
17283;SDS011;8760;52.248;20.952;2023-08-08T03:26:50;6.70;;;2.20;;
17283;SDS011;8760;52.248;20.952;2023-08-08T03:29:17;7.00;;;2.20;;
17283;SDS011;8760;52.248;20.952;2023-08-08T03:31:43;6.17;;;2.37;;
17283;SDS011;8760;52.248;20.952;2023-08-08T03:34:10;6.33;;;1.90;;
17283;SDS011;8760;52.248;20.952;2023-08-08T03:36:37;5.73;;;2.30;;
17283;SDS011;8760;52.248;20.952;2023-08-08T03:39:04;4.43;;;2.10;;
17283;SDS011;8760;52.248;20.952;2023-08-08T03:41:33;6.50;;;2.30;;
17283;SDS011;8760;52.248;20.952;2023-08-08T03:44:03;4.63;;;2.13;;
17283;SDS011;8760;52.248;20.952;2023-08-08T03:46:30;6.87;;;2.13;;
17283;SDS011;8760;52.248;20.952;2023-08-08T03:48:59;3.37;;;1.77;;
17283;SDS011;8760;52.248;20.952;2023-08-08T03:51:25;6.37;;;2.30;;
17283;SDS011;8760;52.248;20.952;2023-08-08T03:53:52;7.20;;;2.20;;
17283;SDS011;8760;52.248;20.952;2023-08-08T03:56:19;6.03;;;2.40;;
17283;SDS011;8760;52.248;20.952;2023-08-08T03:58:46;3.57;;;2.03;;
17283;SDS011;8760;52.248;20.952;2023-08-08T04:01:14;6.87;;;2.37;;
17283;SDS011;8760;52.248;20.952;2023-08-08T04:03:41;5.60;;;2.33;;
17283;SDS011;8760;52.248;20.952;2023-08-08T04:06:08;6.30;;;2.40;;
17283;SDS011;8760;52.248;20.952;2023-08-08T04:08:35;4.77;;;2.10;;
17283;SDS011;8760;52.248;20.952;2023-08-08T04:11:02;6.83;;;2.37;;
17283;SDS011;8760;52.248;20.952;2023-08-08T04:13:28;6.60;;;2.10;;
17283;SDS011;8760;52.248;20.952;2023-08-08T04:15:55;6.30;;;1.93;;
17283;SDS011;8760;52.248;20.952;2023-08-08T04:18:24;4.43;;;1.87;;
17283;SDS011;8760;52.248;20.952;2023-08-08T04:20:50;5.90;;;2.20;;
17283;SDS011;8760;52.248;20.952;2023-08-08T04:23:17;5.90;;;2.03;;
17283;SDS011;8760;52.248;20.952;2023-08-08T04:25:44;7.30;;;2.07;;
17283;SDS011;8760;52.248;20.952;2023-08-08T04:28:11;8.03;;;2.27;;
17283;SDS011;8760;52.248;20.952;2023-08-08T04:30:38;5.33;;;1.90;;
17283;SDS011;8760;52.248;20.952;2023-08-08T04:33:05;6.37;;;2.40;;
17283;SDS011;8760;52.248;20.952;2023-08-08T04:35:33;5.60;;;1.97;;
17283;SDS011;8760;52.248;20.952;2023-08-08T04:38:00;6.73;;;2.30;;
17283;SDS011;8760;52.248;20.952;2023-08-08T04:40:27;6.37;;;2.47;;
17283;SDS011;8760;52.248;20.952;2023-08-08T04:42:54;6.63;;;2.30;;
17283;SDS011;8760;52.248;20.952;2023-08-08T04:45:21;5.27;;;2.17;;
17283;SDS011;8760;52.248;20.952;2023-08-08T04:47:48;5.50;;;2.00;;
17283;SDS011;8760;52.248;20.952;2023-08-08T04:50:15;4.93;;;2.30;;
17283;SDS011;8760;52.248;20.952;2023-08-08T04:52:43;6.50;;;2.23;;
17283;SDS011;8760;52.248;20.952;2023-08-08T04:55:10;5.70;;;2.10;;
17283;SDS011;8760;52.248;20.952;2023-08-08T04:57:36;6.37;;;2.03;;
17283;SDS011;8760;52.248;20.952;2023-08-08T05:00:04;5.27;;;1.90;;
17283;SDS011;8760;52.248;20.952;2023-08-08T05:02:33;6.03;;;2.20;;
17283;SDS011;8760;52.248;20.952;2023-08-08T05:05:00;6.07;;;2.10;;
17283;SDS011;8760;52.248;20.952;2023-08-08T05:07:27;9.97;;;2.20;;
17283;SDS011;8760;52.248;20.952;2023-08-08T05:09:56;6.30;;;1.80;;
17283;SDS011;8760;52.248;20.952;2023-08-08T05:12:22;7.93;;;2.07;;
17283;SDS011;8760;52.248;20.952;2023-08-08T05:14:49;4.13;;;1.90;;
17283;SDS011;8760;52.248;20.952;2023-08-08T05:17:16;7.73;;;2.20;;
17283;SDS011;8760;52.248;20.952;2023-08-08T05:19:43;9.63;;;1.87;;
17283;SDS011;8760;52.248;20.952;2023-08-08T05:22:10;6.77;;;2.57;;
17283;SDS011;8760;52.248;20.952;2023-08-08T05:24:37;4.23;;;2.07;;
17283;SDS011;8760;52.248;20.952;2023-08-08T05:27:05;5.25;;;2.10;;
17283;SDS011;8760;52.248;20.952;2023-08-08T05:29:32;5.57;;;2.30;;
17283;SDS011;8760;52.248;20.952;2023-08-08T05:32:03;3.90;;;2.07;;
17283;SDS011;8760;52.248;20.952;2023-08-08T05:34:31;6.78;;;3.00;;
17283;SDS011;8760;52.248;20.952;2023-08-08T05:36:58;6.53;;;2.25;;
17283;SDS011;8760;52.248;20.952;2023-08-08T05:39:25;5.07;;;2.43;;
17283;SDS011;8760;52.248;20.952;2023-08-08T05:41:52;8.02;;;2.08;;
17283;SDS011;8760;52.248;20.952;2023-08-08T05:44:20;3.97;;;2.20;;
17283;SDS011;8760;52.248;20.952;2023-08-08T05:46:47;7.27;;;2.20;;
17283;SDS011;8760;52.248;20.952;2023-08-08T05:49:14;5.80;;;2.13;;
17283;SDS011;8760;52.248;20.952;2023-08-08T05:51:41;5.72;;;3.13;;
17283;SDS011;8760;52.248;20.952;2023-08-08T05:54:07;5.13;;;2.00;;
17283;SDS011;8760;52.248;20.952;2023-08-08T05:56:36;5.75;;;2.80;;
17283;SDS011;8760;52.248;20.952;2023-08-08T05:59:04;7.45;;;2.30;;
17283;SDS011;8760;52.248;20.952;2023-08-08T06:01:32;5.75;;;2.70;;
17283;SDS011;8760;52.248;20.952;2023-08-08T06:03:59;10.07;;;2.97;;
17283;SDS011;8760;52.248;20.952;2023-08-08T06:06:26;3.53;;;1.88;;
17283;SDS011;8760;52.248;20.952;2023-08-08T06:08:53;6.47;;;2.07;;
17283;SDS011;8760;52.248;20.952;2023-08-08T06:11:20;4.07;;;2.20;;
17283;SDS011;8760;52.248;20.952;2023-08-08T06:13:48;4.80;;;2.42;;
17283;SDS011;8760;52.248;20.952;2023-08-08T06:16:15;6.70;;;2.35;;
17283;SDS011;8760;52.248;20.952;2023-08-08T06:18:45;5.10;;;2.30;;
17283;SDS011;8760;52.248;20.952;2023-08-08T06:21:12;4.50;;;2.20;;
17283;SDS011;8760;52.248;20.952;2023-08-08T06:23:38;4.50;;;2.50;;
17283;SDS011;8760;52.248;20.952;2023-08-08T06:26:05;5.70;;;2.05;;
17283;SDS011;8760;52.248;20.952;2023-08-08T06:28:32;5.20;;;2.72;;
17283;SDS011;8760;52.248;20.952;2023-08-08T06:30:59;5.70;;;2.40;;
17283;SDS011;8760;52.248;20.952;2023-08-08T06:33:27;5.57;;;2.05;;
17283;SDS011;8760;52.248;20.952;2023-08-08T06:35:56;7.05;;;2.20;;
17283;SDS011;8760;52.248;20.952;2023-08-08T06:38:23;4.65;;;2.30;;
17283;SDS011;8760;52.248;20.952;2023-08-08T06:40:50;5.72;;;2.47;;
17283;SDS011;8760;52.248;20.952;2023-08-08T06:43:17;5.95;;;2.00;;
17283;SDS011;8760;52.248;20.952;2023-08-08T06:45:44;6.63;;;2.78;;
17283;SDS011;8760;52.248;20.952;2023-08-08T06:48:10;4.25;;;2.25;;
17283;SDS011;8760;52.248;20.952;2023-08-08T06:50:37;2.80;;;1.73;;
17283;SDS011;8760;52.248;20.952;2023-08-08T06:53:06;6.35;;;2.00;;
17283;SDS011;8760;52.248;20.952;2023-08-08T06:55:33;4.93;;;2.30;;
17283;SDS011;8760;52.248;20.952;2023-08-08T06:57:59;2.55;;;1.88;;
17283;SDS011;8760;52.248;20.952;2023-08-08T07:00:26;4.15;;;2.10;;
17283;SDS011;8760;52.248;20.952;2023-08-08T07:02:53;6.07;;;2.30;;
17283;SDS011;8760;52.248;20.952;2023-08-08T07:05:20;6.55;;;2.20;;
17283;SDS011;8760;52.248;20.952;2023-08-08T07:07:48;5.50;;;1.98;;
17283;SDS011;8760;52.248;20.952;2023-08-08T07:10:17;3.88;;;1.95;;
17283;SDS011;8760;52.248;20.952;2023-08-08T07:12:44;6.78;;;2.30;;
17283;SDS011;8760;52.248;20.952;2023-08-08T07:15:12;9.82;;;2.40;;
17283;SDS011;8760;52.248;20.952;2023-08-08T07:17:41;7.13;;;2.33;;
17283;SDS011;8760;52.248;20.952;2023-08-08T07:20:07;4.97;;;2.08;;
17283;SDS011;8760;52.248;20.952;2023-08-08T07:22:38;4.68;;;2.13;;
17283;SDS011;8760;52.248;20.952;2023-08-08T07:25:06;6.50;;;2.58;;
17283;SDS011;8760;52.248;20.952;2023-08-08T07:27:34;4.55;;;1.92;;
17283;SDS011;8760;52.248;20.952;2023-08-08T07:30:01;6.95;;;2.17;;
17283;SDS011;8760;52.248;20.952;2023-08-08T07:32:29;6.60;;;1.92;;
17283;SDS011;8760;52.248;20.952;2023-08-08T07:34:55;2.65;;;1.65;;
17283;SDS011;8760;52.248;20.952;2023-08-08T07:37:22;5.43;;;2.05;;
17283;SDS011;8760;52.248;20.952;2023-08-08T07:39:50;3.85;;;2.20;;
17283;SDS011;8760;52.248;20.952;2023-08-08T07:42:17;5.65;;;2.03;;
17283;SDS011;8760;52.248;20.952;2023-08-08T07:44:45;5.10;;;1.83;;
17283;SDS011;8760;52.248;20.952;2023-08-08T07:47:12;6.07;;;2.22;;
17283;SDS011;8760;52.248;20.952;2023-08-08T07:49:39;3.72;;;1.90;;
17283;SDS011;8760;52.248;20.952;2023-08-08T07:52:06;4.28;;;2.05;;
17283;SDS011;8760;52.248;20.952;2023-08-08T07:54:33;6.45;;;2.38;;
17283;SDS011;8760;52.248;20.952;2023-08-08T07:57:00;6.53;;;1.75;;
17283;SDS011;8760;52.248;20.952;2023-08-08T07:59:27;6.78;;;1.95;;
17283;SDS011;8760;52.248;20.952;2023-08-08T08:01:55;5.65;;;2.17;;
17283;SDS011;8760;52.248;20.952;2023-08-08T08:04:22;8.70;;;2.33;;
17283;SDS011;8760;52.248;20.952;2023-08-08T08:06:49;5.80;;;2.53;;
17283;SDS011;8760;52.248;20.952;2023-08-08T08:09:16;9.32;;;3.22;;
17283;SDS011;8760;52.248;20.952;2023-08-08T08:11:43;9.70;;;2.88;;
17283;SDS011;8760;52.248;20.952;2023-08-08T08:14:09;4.60;;;1.75;;
17283;SDS011;8760;52.248;20.952;2023-08-08T08:16:36;4.50;;;1.92;;
17283;SDS011;8760;52.248;20.952;2023-08-08T08:19:05;4.13;;;1.80;;
17283;SDS011;8760;52.248;20.952;2023-08-08T08:21:31;4.95;;;2.28;;
17283;SDS011;8760;52.248;20.952;2023-08-08T08:23:59;5.63;;;2.08;;
17283;SDS011;8760;52.248;20.952;2023-08-08T08:26:26;3.90;;;2.13;;
17283;SDS011;8760;52.248;20.952;2023-08-08T08:28:53;3.22;;;1.67;;
17283;SDS011;8760;52.248;20.952;2023-08-08T08:31:20;4.57;;;2.08;;
17283;SDS011;8760;52.248;20.952;2023-08-08T08:33:47;6.30;;;2.20;;
17283;SDS011;8760;52.248;20.952;2023-08-08T08:36:15;5.18;;;1.52;;
17283;SDS011;8760;52.248;20.952;2023-08-08T08:38:42;3.80;;;1.70;;
17283;SDS011;8760;52.248;20.952;2023-08-08T08:41:09;3.88;;;1.80;;
17283;SDS011;8760;52.248;20.952;2023-08-08T08:43:41;4.38;;;1.77;;
17283;SDS011;8760;52.248;20.952;2023-08-08T08:46:08;3.83;;;2.20;;
17283;SDS011;8760;52.248;20.952;2023-08-08T08:48:37;4.07;;;1.83;;
17283;SDS011;8760;52.248;20.952;2023-08-08T08:51:04;5.00;;;1.90;;
17283;SDS011;8760;52.248;20.952;2023-08-08T08:53:33;5.75;;;2.25;;
17283;SDS011;8760;52.248;20.952;2023-08-08T08:56:04;3.88;;;1.65;;
17283;SDS011;8760;52.248;20.952;2023-08-08T08:58:33;6.55;;;2.10;;
17283;SDS011;8760;52.248;20.952;2023-08-08T09:01:00;5.38;;;1.63;;
17283;SDS011;8760;52.248;20.952;2023-08-08T09:03:27;4.10;;;1.90;;
17283;SDS011;8760;52.248;20.952;2023-08-08T09:05:54;3.83;;;1.80;;
17283;SDS011;8760;52.248;20.952;2023-08-08T09:08:22;5.00;;;1.40;;
17283;SDS011;8760;52.248;20.952;2023-08-08T09:10:50;5.13;;;1.63;;
17283;SDS011;8760;52.248;20.952;2023-08-08T09:13:17;8.38;;;2.28;;
17283;SDS011;8760;52.248;20.952;2023-08-08T09:15:46;5.22;;;1.83;;
17283;SDS011;8760;52.248;20.952;2023-08-08T09:18:14;7.65;;;1.98;;
17283;SDS011;8760;52.248;20.952;2023-08-08T09:20:41;6.05;;;2.42;;
17283;SDS011;8760;52.248;20.952;2023-08-08T09:23:13;5.97;;;2.40;;
17283;SDS011;8760;52.248;20.952;2023-08-08T09:25:40;8.90;;;2.00;;
17283;SDS011;8760;52.248;20.952;2023-08-08T09:28:08;4.50;;;1.83;;
17283;SDS011;8760;52.248;20.952;2023-08-08T09:30:35;8.98;;;1.90;;
17283;SDS011;8760;52.248;20.952;2023-08-08T09:33:02;3.65;;;2.28;;
17283;SDS011;8760;52.248;20.952;2023-08-08T09:35:30;3.42;;;1.83;;
17283;SDS011;8760;52.248;20.952;2023-08-08T09:37:57;7.05;;;1.63;;
17283;SDS011;8760;52.248;20.952;2023-08-08T09:40:24;2.38;;;1.38;;
17283;SDS011;8760;52.248;20.952;2023-08-08T09:42:52;4.55;;;1.80;;
17283;SDS011;8760;52.248;20.952;2023-08-08T09:45:20;8.10;;;1.70;;
17283;SDS011;8760;52.248;20.952;2023-08-08T09:47:48;5.72;;;1.92;;
17283;SDS011;8760;52.248;20.952;2023-08-08T09:50:17;6.80;;;1.98;;
17283;SDS011;8760;52.248;20.952;2023-08-08T09:52:45;5.75;;;1.80;;
17283;SDS011;8760;52.248;20.952;2023-08-08T09:55:13;2.95;;;1.50;;
17283;SDS011;8760;52.248;20.952;2023-08-08T09:57:40;6.00;;;2.10;;
17283;SDS011;8760;52.248;20.952;2023-08-08T10:00:09;7.13;;;1.80;;
17283;SDS011;8760;52.248;20.952;2023-08-08T10:02:42;2.85;;;1.40;;
17283;SDS011;8760;52.248;20.952;2023-08-08T10:05:10;3.15;;;1.80;;
17283;SDS011;8760;52.248;20.952;2023-08-08T10:07:38;4.80;;;1.55;;
17283;SDS011;8760;52.248;20.952;2023-08-08T10:10:08;5.22;;;2.17;;
17283;SDS011;8760;52.248;20.952;2023-08-08T10:12:36;2.65;;;1.60;;
17283;SDS011;8760;52.248;20.952;2023-08-08T10:15:04;3.03;;;1.42;;
17283;SDS011;8760;52.248;20.952;2023-08-08T10:17:35;3.10;;;1.70;;
17283;SDS011;8760;52.248;20.952;2023-08-08T10:20:05;2.90;;;1.50;;
17283;SDS011;8760;52.248;20.952;2023-08-08T10:22:37;8.70;;;1.80;;
17283;SDS011;8760;52.248;20.952;2023-08-08T10:25:07;8.88;;;2.65;;
17283;SDS011;8760;52.248;20.952;2023-08-08T10:27:35;4.70;;;2.00;;
17283;SDS011;8760;52.248;20.952;2023-08-08T10:30:04;5.03;;;1.92;;
17283;SDS011;8760;52.248;20.952;2023-08-08T10:32:41;4.18;;;1.45;;
17283;SDS011;8760;52.248;20.952;2023-08-08T10:35:10;5.95;;;1.90;;
17283;SDS011;8760;52.248;20.952;2023-08-08T10:37:38;2.30;;;1.50;;
17283;SDS011;8760;52.248;20.952;2023-08-08T10:40:06;5.75;;;1.60;;
17283;SDS011;8760;52.248;20.952;2023-08-08T10:42:46;3.20;;;1.27;;
17283;SDS011;8760;52.248;20.952;2023-08-08T10:45:14;1.95;;;1.27;;
17283;SDS011;8760;52.248;20.952;2023-08-08T10:47:42;6.45;;;1.35;;
17283;SDS011;8760;52.248;20.952;2023-08-08T10:50:11;3.88;;;1.25;;
17283;SDS011;8760;52.248;20.952;2023-08-08T10:52:50;2.97;;;1.33;;
17283;SDS011;8760;52.248;20.952;2023-08-08T10:55:19;4.90;;;1.50;;
17283;SDS011;8760;52.248;20.952;2023-08-08T10:57:57;3.47;;;1.52;;
17283;SDS011;8760;52.248;20.952;2023-08-08T11:00:27;5.93;;;1.70;;
17283;SDS011;8760;52.248;20.952;2023-08-08T11:02:56;4.20;;;1.48;;
17283;SDS011;8760;52.248;20.952;2023-08-08T11:05:27;2.60;;;1.20;;
17283;SDS011;8760;52.248;20.952;2023-08-08T11:07:55;1.67;;;1.10;;
17283;SDS011;8760;52.248;20.952;2023-08-08T11:10:22;2.78;;;1.30;;
17283;SDS011;8760;52.248;20.952;2023-08-08T11:12:54;2.92;;;1.50;;
17283;SDS011;8760;52.248;20.952;2023-08-08T11:15:23;4.25;;;1.77;;
17283;SDS011;8760;52.248;20.952;2023-08-08T11:17:50;2.35;;;1.15;;
17283;SDS011;8760;52.248;20.952;2023-08-08T11:20:17;3.78;;;1.35;;
17283;SDS011;8760;52.248;20.952;2023-08-08T11:22:46;2.60;;;1.30;;
17283;SDS011;8760;52.248;20.952;2023-08-08T11:25:17;2.92;;;1.48;;
17283;SDS011;8760;52.248;20.952;2023-08-08T11:27:48;3.05;;;1.00;;
17283;SDS011;8760;52.248;20.952;2023-08-08T11:30:17;1.77;;;1.10;;
17283;SDS011;8760;52.248;20.952;2023-08-08T11:32:44;3.10;;;1.20;;
17283;SDS011;8760;52.248;20.952;2023-08-08T11:35:15;4.90;;;1.10;;
17283;SDS011;8760;52.248;20.952;2023-08-08T11:37:43;4.38;;;1.63;;
17283;SDS011;8760;52.248;20.952;2023-08-08T11:40:12;4.85;;;1.33;;
17283;SDS011;8760;52.248;20.952;2023-08-08T11:42:39;2.22;;;1.20;;
17283;SDS011;8760;52.248;20.952;2023-08-08T11:45:08;2.60;;;1.42;;
17283;SDS011;8760;52.248;20.952;2023-08-08T11:47:37;2.28;;;1.27;;
17283;SDS011;8760;52.248;20.952;2023-08-08T11:50:05;4.05;;;1.30;;
17283;SDS011;8760;52.248;20.952;2023-08-08T11:52:34;1.73;;;1.10;;
17283;SDS011;8760;52.248;20.952;2023-08-08T11:55:02;2.13;;;1.10;;
17283;SDS011;8760;52.248;20.952;2023-08-08T11:57:33;2.63;;;1.10;;
17283;SDS011;8760;52.248;20.952;2023-08-08T12:00:02;2.60;;;1.02;;
17283;SDS011;8760;52.248;20.952;2023-08-08T12:02:31;2.63;;;1.20;;
17283;SDS011;8760;52.248;20.952;2023-08-08T12:05:03;1.52;;;1.10;;
17283;SDS011;8760;52.248;20.952;2023-08-08T12:07:31;2.25;;;1.00;;
17283;SDS011;8760;52.248;20.952;2023-08-08T12:09:59;2.50;;;1.15;;
17283;SDS011;8760;52.248;20.952;2023-08-08T12:12:26;2.88;;;1.13;;
17283;SDS011;8760;52.248;20.952;2023-08-08T12:14:58;3.53;;;1.00;;
17283;SDS011;8760;52.248;20.952;2023-08-08T12:17:30;2.20;;;1.10;;
17283;SDS011;8760;52.248;20.952;2023-08-08T12:19:58;5.57;;;1.20;;
17283;SDS011;8760;52.248;20.952;2023-08-08T12:22:25;1.42;;;1.13;;
17283;SDS011;8760;52.248;20.952;2023-08-08T12:24:52;1.10;;;0.90;;
17283;SDS011;8760;52.248;20.952;2023-08-08T12:27:19;5.15;;;1.33;;
17283;SDS011;8760;52.248;20.952;2023-08-08T12:29:46;1.23;;;1.10;;
17283;SDS011;8760;52.248;20.952;2023-08-08T12:32:14;1.42;;;1.05;;
17283;SDS011;8760;52.248;20.952;2023-08-08T12:34:41;1.55;;;1.25;;
17283;SDS011;8760;52.248;20.952;2023-08-08T12:37:08;2.90;;;1.20;;
17283;SDS011;8760;52.248;20.952;2023-08-08T12:39:35;1.20;;;1.05;;
17283;SDS011;8760;52.248;20.952;2023-08-08T12:42:02;1.55;;;1.10;;
17283;SDS011;8760;52.248;20.952;2023-08-08T12:44:29;3.85;;;1.35;;
17283;SDS011;8760;52.248;20.952;2023-08-08T12:46:55;1.98;;;1.42;;
17283;SDS011;8760;52.248;20.952;2023-08-08T12:49:24;5.15;;;1.40;;
17283;SDS011;8760;52.248;20.952;2023-08-08T12:51:51;1.75;;;1.08;;
17283;SDS011;8760;52.248;20.952;2023-08-08T12:54:20;1.10;;;1.00;;
17283;SDS011;8760;52.248;20.952;2023-08-08T12:56:47;3.15;;;1.10;;
17283;SDS011;8760;52.248;20.952;2023-08-08T12:59:14;2.22;;;1.20;;
17283;SDS011;8760;52.248;20.952;2023-08-08T13:01:41;2.22;;;1.15;;
17283;SDS011;8760;52.248;20.952;2023-08-08T13:04:08;2.05;;;1.15;;
17283;SDS011;8760;52.248;20.952;2023-08-08T13:06:37;6.75;;;1.23;;
17283;SDS011;8760;52.248;20.952;2023-08-08T13:09:04;1.85;;;1.50;;
17283;SDS011;8760;52.248;20.952;2023-08-08T13:11:31;1.75;;;1.10;;
17283;SDS011;8760;52.248;20.952;2023-08-08T13:13:58;2.30;;;1.10;;
17283;SDS011;8760;52.248;20.952;2023-08-08T13:16:25;4.50;;;1.17;;
17283;SDS011;8760;52.248;20.952;2023-08-08T13:18:51;1.30;;;1.20;;
17283;SDS011;8760;52.248;20.952;2023-08-08T13:21:18;1.10;;;1.00;;
17283;SDS011;8760;52.248;20.952;2023-08-08T13:23:47;3.33;;;1.15;;
17283;SDS011;8760;52.248;20.952;2023-08-08T13:26:13;2.15;;;1.23;;
17283;SDS011;8760;52.248;20.952;2023-08-08T13:28:41;1.77;;;1.00;;
17283;SDS011;8760;52.248;20.952;2023-08-08T13:31:08;2.90;;;1.27;;
17283;SDS011;8760;52.248;20.952;2023-08-08T13:33:35;2.72;;;1.20;;
17283;SDS011;8760;52.248;20.952;2023-08-08T13:36:02;3.72;;;1.55;;
17283;SDS011;8760;52.248;20.952;2023-08-08T13:38:29;3.50;;;1.40;;
17283;SDS011;8760;52.248;20.952;2023-08-08T13:40:57;2.65;;;1.40;;
17283;SDS011;8760;52.248;20.952;2023-08-08T13:43:25;3.55;;;1.40;;
17283;SDS011;8760;52.248;20.952;2023-08-08T13:45:52;3.00;;;1.15;;
17283;SDS011;8760;52.248;20.952;2023-08-08T13:48:19;3.05;;;1.10;;
17283;SDS011;8760;52.248;20.952;2023-08-08T13:50:46;4.95;;;1.40;;
17283;SDS011;8760;52.248;20.952;2023-08-08T13:53:13;2.58;;;1.13;;
17283;SDS011;8760;52.248;20.952;2023-08-08T13:55:40;3.10;;;1.23;;
17283;SDS011;8760;52.248;20.952;2023-08-08T13:58:10;1.15;;;1.05;;
17283;SDS011;8760;52.248;20.952;2023-08-08T14:00:37;2.88;;;1.10;;
17283;SDS011;8760;52.248;20.952;2023-08-08T14:03:04;2.95;;;1.13;;
17283;SDS011;8760;52.248;20.952;2023-08-08T14:05:31;4.85;;;1.27;;
17283;SDS011;8760;52.248;20.952;2023-08-08T14:07:58;1.55;;;1.05;;
17283;SDS011;8760;52.248;20.952;2023-08-08T14:10:25;1.58;;;1.25;;
17283;SDS011;8760;52.248;20.952;2023-08-08T14:12:52;2.33;;;1.20;;
17283;SDS011;8760;52.248;20.952;2023-08-08T14:15:21;2.72;;;1.38;;
17283;SDS011;8760;52.248;20.952;2023-08-08T14:17:48;3.60;;;1.48;;
17283;SDS011;8760;52.248;20.952;2023-08-08T14:20:15;1.77;;;1.23;;
17283;SDS011;8760;52.248;20.952;2023-08-08T14:22:44;1.67;;;1.20;;
17283;SDS011;8760;52.248;20.952;2023-08-08T14:25:11;1.50;;;1.40;;
17283;SDS011;8760;52.248;20.952;2023-08-08T14:27:38;3.33;;;1.17;;
17283;SDS011;8760;52.248;20.952;2023-08-08T14:30:06;2.47;;;1.60;;
17283;SDS011;8760;52.248;20.952;2023-08-08T14:32:35;5.07;;;1.70;;
17283;SDS011;8760;52.248;20.952;2023-08-08T14:35:01;3.60;;;1.58;;
17283;SDS011;8760;52.248;20.952;2023-08-08T14:37:29;2.35;;;1.20;;
17283;SDS011;8760;52.248;20.952;2023-08-08T14:39:57;1.60;;;1.30;;
17283;SDS011;8760;52.248;20.952;2023-08-08T14:42:23;4.70;;;1.20;;
17283;SDS011;8760;52.248;20.952;2023-08-08T14:44:50;1.30;;;1.00;;
17283;SDS011;8760;52.248;20.952;2023-08-08T14:47:17;1.67;;;1.20;;
17283;SDS011;8760;52.248;20.952;2023-08-08T14:49:45;1.08;;;0.98;;